sensor_id;sensor_type;location;lat;lon;timestamp;P1;durP1;ratioP1;P2;durP2;ratioP2
691;SDS011;328;50.086;8.576;2023-04-02T00:07:56;3.33;;;1.00;;
691;SDS011;328;50.086;8.576;2023-04-02T00:10:27;0.90;;;0.80;;
691;SDS011;328;50.086;8.576;2023-04-02T00:13:01;1.37;;;0.90;;
691;SDS011;328;50.086;8.576;2023-04-02T00:15:30;1.30;;;0.90;;
691;SDS011;328;50.086;8.576;2023-04-02T00:17:59;0.97;;;0.87;;
691;SDS011;328;50.086;8.576;2023-04-02T00:20:27;1.87;;;0.93;;
691;SDS011;328;50.086;8.576;2023-04-02T00:22:56;0.87;;;0.67;;
691;SDS011;328;50.086;8.576;2023-04-02T00:25:25;1.10;;;0.70;;
691;SDS011;328;50.086;8.576;2023-04-02T00:27:53;0.90;;;0.70;;
691;SDS011;328;50.086;8.576;2023-04-02T00:30:22;1.70;;;1.10;;
691;SDS011;328;50.086;8.576;2023-04-02T00:32:50;1.07;;;0.80;;
691;SDS011;328;50.086;8.576;2023-04-02T00:35:18;1.30;;;1.10;;
691;SDS011;328;50.086;8.576;2023-04-02T00:37:47;1.63;;;1.33;;
691;SDS011;328;50.086;8.576;2023-04-02T00:40:17;0.87;;;0.77;;
691;SDS011;328;50.086;8.576;2023-04-02T00:42:47;1.10;;;0.80;;
691;SDS011;328;50.086;8.576;2023-04-02T00:45:18;1.23;;;0.93;;
691;SDS011;328;50.086;8.576;2023-04-02T00:47:51;3.43;;;0.87;;
691;SDS011;328;50.086;8.576;2023-04-02T00:50:21;1.10;;;0.90;;
691;SDS011;328;50.086;8.576;2023-04-02T00:52:54;0.90;;;0.80;;
691;SDS011;328;50.086;8.576;2023-04-02T00:55:24;1.00;;;0.70;;
691;SDS011;328;50.086;8.576;2023-04-02T00:57:54;2.33;;;1.07;;
691;SDS011;328;50.086;8.576;2023-04-02T01:00:27;1.70;;;1.10;;
691;SDS011;328;50.086;8.576;2023-04-02T01:06:00;2.40;;;1.03;;
691;SDS011;328;50.086;8.576;2023-04-02T01:08:33;1.20;;;0.83;;
691;SDS011;328;50.086;8.576;2023-04-02T01:11:14;1.23;;;1.13;;
691;SDS011;328;50.086;8.576;2023-04-02T01:13:50;1.10;;;1.00;;
691;SDS011;328;50.086;8.576;2023-04-02T01:16:23;5.40;;;1.60;;
691;SDS011;328;50.086;8.576;2023-04-02T01:18:57;1.73;;;1.30;;
691;SDS011;328;50.086;8.576;2023-04-02T01:21:30;1.83;;;1.13;;
691;SDS011;328;50.086;8.576;2023-04-02T01:24:03;1.60;;;1.30;;
691;SDS011;328;50.086;8.576;2023-04-02T01:26:35;1.23;;;1.13;;
691;SDS011;328;50.086;8.576;2023-04-02T01:29:12;2.40;;;1.20;;
691;SDS011;328;50.086;8.576;2023-04-02T01:31:41;4.07;;;2.70;;
691;SDS011;328;50.086;8.576;2023-04-02T01:34:12;1.97;;;1.83;;
691;SDS011;328;50.086;8.576;2023-04-02T01:36:42;1.87;;;1.50;;
691;SDS011;328;50.086;8.576;2023-04-02T01:39:19;1.80;;;1.67;;
691;SDS011;328;50.086;8.576;2023-04-02T01:41:53;2.07;;;1.80;;
691;SDS011;328;50.086;8.576;2023-04-02T01:44:27;4.90;;;2.47;;
691;SDS011;328;50.086;8.576;2023-04-02T01:46:57;3.57;;;2.20;;
691;SDS011;328;50.086;8.576;2023-04-02T01:49:28;3.30;;;2.47;;
691;SDS011;328;50.086;8.576;2023-04-02T01:51:56;2.40;;;2.20;;
691;SDS011;328;50.086;8.576;2023-04-02T01:54:23;2.97;;;2.60;;
691;SDS011;328;50.086;8.576;2023-04-02T01:56:53;5.00;;;2.93;;
691;SDS011;328;50.086;8.576;2023-04-02T01:59:22;3.90;;;2.83;;
691;SDS011;328;50.086;8.576;2023-04-02T02:01:52;3.77;;;2.77;;
691;SDS011;328;50.086;8.576;2023-04-02T02:04:23;2.97;;;2.40;;
691;SDS011;328;50.086;8.576;2023-04-02T02:06:51;3.67;;;2.10;;
691;SDS011;328;50.086;8.576;2023-04-02T02:09:19;2.80;;;2.60;;
691;SDS011;328;50.086;8.576;2023-04-02T02:11:49;5.43;;;2.80;;
691;SDS011;328;50.086;8.576;2023-04-02T02:14:17;5.47;;;2.67;;
691;SDS011;328;50.086;8.576;2023-04-02T02:16:46;2.50;;;2.30;;
691;SDS011;328;50.086;8.576;2023-04-02T02:19:20;2.80;;;2.50;;
691;SDS011;328;50.086;8.576;2023-04-02T02:21:51;3.80;;;2.50;;
691;SDS011;328;50.086;8.576;2023-04-02T02:24:20;3.10;;;2.60;;
691;SDS011;328;50.086;8.576;2023-04-02T02:26:49;3.30;;;3.00;;
691;SDS011;328;50.086;8.576;2023-04-02T02:29:27;5.13;;;2.47;;
691;SDS011;328;50.086;8.576;2023-04-02T02:31:55;5.23;;;2.80;;
691;SDS011;328;50.086;8.576;2023-04-02T02:34:28;2.80;;;2.53;;
691;SDS011;328;50.086;8.576;2023-04-02T02:36:58;3.27;;;2.50;;
691;SDS011;328;50.086;8.576;2023-04-02T02:39:30;3.37;;;2.90;;
691;SDS011;328;50.086;8.576;2023-04-02T02:42:01;4.30;;;2.80;;
691;SDS011;328;50.086;8.576;2023-04-02T02:44:32;2.60;;;2.40;;
691;SDS011;328;50.086;8.576;2023-04-02T02:47:01;3.10;;;2.80;;
691;SDS011;328;50.086;8.576;2023-04-02T02:49:33;2.93;;;2.40;;
691;SDS011;328;50.086;8.576;2023-04-02T02:52:08;2.40;;;2.20;;
691;SDS011;328;50.086;8.576;2023-04-02T02:54:40;2.90;;;2.37;;
691;SDS011;328;50.086;8.576;2023-04-02T02:57:11;3.50;;;2.50;;
691;SDS011;328;50.086;8.576;2023-04-02T02:59:41;3.17;;;2.33;;
691;SDS011;328;50.086;8.576;2023-04-02T03:02:09;3.87;;;3.10;;
691;SDS011;328;50.086;8.576;2023-04-02T03:04:38;3.60;;;3.23;;
691;SDS011;328;50.086;8.576;2023-04-02T03:07:05;2.87;;;2.60;;
691;SDS011;328;50.086;8.576;2023-04-02T03:09:35;7.53;;;3.03;;
691;SDS011;328;50.086;8.576;2023-04-02T03:12:06;3.73;;;2.47;;
691;SDS011;328;50.086;8.576;2023-04-02T03:14:47;3.40;;;2.60;;
691;SDS011;328;50.086;8.576;2023-04-02T03:17:19;4.73;;;2.60;;
691;SDS011;328;50.086;8.576;2023-04-02T03:19:52;5.20;;;3.17;;
691;SDS011;328;50.086;8.576;2023-04-02T03:22:22;3.63;;;2.20;;
691;SDS011;328;50.086;8.576;2023-04-02T03:24:56;4.90;;;3.27;;
691;SDS011;328;50.086;8.576;2023-04-02T03:27:26;3.43;;;2.90;;
691;SDS011;328;50.086;8.576;2023-04-02T03:29:59;5.70;;;3.43;;
691;SDS011;328;50.086;8.576;2023-04-02T03:32:32;2.73;;;2.53;;
691;SDS011;328;50.086;8.576;2023-04-02T03:35:05;6.23;;;3.13;;
691;SDS011;328;50.086;8.576;2023-04-02T03:37:45;3.00;;;2.77;;
691;SDS011;328;50.086;8.576;2023-04-02T03:40:14;2.83;;;2.40;;
691;SDS011;328;50.086;8.576;2023-04-02T03:42:45;3.50;;;2.80;;
691;SDS011;328;50.086;8.576;2023-04-02T03:45:17;3.63;;;2.60;;
691;SDS011;328;50.086;8.576;2023-04-02T03:47:48;2.80;;;2.47;;
691;SDS011;328;50.086;8.576;2023-04-02T03:50:22;3.40;;;2.60;;
691;SDS011;328;50.086;8.576;2023-04-02T03:52:53;2.40;;;2.10;;
691;SDS011;328;50.086;8.576;2023-04-02T03:55:21;3.57;;;2.93;;
691;SDS011;328;50.086;8.576;2023-04-02T03:57:52;3.37;;;3.00;;
691;SDS011;328;50.086;8.576;2023-04-02T04:00:24;3.57;;;2.47;;
691;SDS011;328;50.086;8.576;2023-04-02T04:03:01;2.70;;;2.30;;
691;SDS011;328;50.086;8.576;2023-04-02T04:05:34;2.50;;;2.30;;
691;SDS011;328;50.086;8.576;2023-04-02T04:08:04;3.20;;;2.43;;
691;SDS011;328;50.086;8.576;2023-04-02T04:10:33;4.43;;;3.30;;
691;SDS011;328;50.086;8.576;2023-04-02T04:13:02;4.50;;;2.50;;
691;SDS011;328;50.086;8.576;2023-04-02T04:15:32;2.50;;;2.23;;
691;SDS011;328;50.086;8.576;2023-04-02T04:18:04;4.60;;;3.30;;
691;SDS011;328;50.086;8.576;2023-04-02T04:20:40;2.70;;;2.27;;
691;SDS011;328;50.086;8.576;2023-04-02T04:23:15;3.90;;;2.70;;
691;SDS011;328;50.086;8.576;2023-04-02T04:25:45;3.50;;;3.13;;
691;SDS011;328;50.086;8.576;2023-04-02T04:28:18;3.53;;;3.20;;
691;SDS011;328;50.086;8.576;2023-04-02T04:30:50;3.10;;;2.73;;
691;SDS011;328;50.086;8.576;2023-04-02T04:33:20;5.90;;;2.70;;
691;SDS011;328;50.086;8.576;2023-04-02T04:35:51;3.37;;;2.50;;
691;SDS011;328;50.086;8.576;2023-04-02T04:38:25;3.20;;;2.90;;
691;SDS011;328;50.086;8.576;2023-04-02T04:40:59;3.10;;;2.60;;
691;SDS011;328;50.086;8.576;2023-04-02T04:43:31;3.80;;;2.70;;
691;SDS011;328;50.086;8.576;2023-04-02T04:46:04;3.93;;;3.40;;
691;SDS011;328;50.086;8.576;2023-04-02T04:48:34;3.53;;;2.77;;
691;SDS011;328;50.086;8.576;2023-04-02T04:51:05;3.17;;;2.60;;
691;SDS011;328;50.086;8.576;2023-04-02T04:53:40;4.00;;;2.90;;
691;SDS011;328;50.086;8.576;2023-04-02T04:56:12;3.80;;;2.53;;
691;SDS011;328;50.086;8.576;2023-04-02T04:58:46;4.07;;;3.07;;
691;SDS011;328;50.086;8.576;2023-04-02T05:01:16;3.30;;;2.77;;
691;SDS011;328;50.086;8.576;2023-04-02T05:03:47;4.50;;;3.37;;
691;SDS011;328;50.086;8.576;2023-04-02T05:06:22;3.23;;;2.93;;
691;SDS011;328;50.086;8.576;2023-04-02T05:08:53;5.67;;;3.53;;
691;SDS011;328;50.086;8.576;2023-04-02T05:11:22;4.40;;;3.53;;
691;SDS011;328;50.086;8.576;2023-04-02T05:13:53;3.43;;;2.50;;
691;SDS011;328;50.086;8.576;2023-04-02T05:16:24;3.93;;;3.53;;
691;SDS011;328;50.086;8.576;2023-04-02T05:18:54;6.00;;;3.93;;
691;SDS011;328;50.086;8.576;2023-04-02T05:21:27;7.60;;;3.13;;
691;SDS011;328;50.086;8.576;2023-04-02T05:24:02;3.97;;;3.17;;
691;SDS011;328;50.086;8.576;2023-04-02T05:26:40;4.80;;;3.50;;
691;SDS011;328;50.086;8.576;2023-04-02T05:29:10;5.63;;;3.57;;
691;SDS011;328;50.086;8.576;2023-04-02T05:31:42;4.43;;;2.93;;
691;SDS011;328;50.086;8.576;2023-04-02T05:34:14;5.00;;;3.70;;
691;SDS011;328;50.086;8.576;2023-04-02T05:36:49;4.70;;;3.60;;
691;SDS011;328;50.086;8.576;2023-04-02T05:39:18;3.80;;;3.40;;
691;SDS011;328;50.086;8.576;2023-04-02T05:41:48;4.30;;;3.90;;
691;SDS011;328;50.086;8.576;2023-04-02T05:44:24;3.90;;;3.50;;
691;SDS011;328;50.086;8.576;2023-04-02T05:46:54;4.37;;;3.33;;
691;SDS011;328;50.086;8.576;2023-04-02T05:49:24;5.77;;;5.10;;
691;SDS011;328;50.086;8.576;2023-04-02T05:51:55;4.23;;;3.30;;
691;SDS011;328;50.086;8.576;2023-04-02T05:54:25;7.30;;;4.00;;
691;SDS011;328;50.086;8.576;2023-04-02T05:56:56;3.80;;;3.33;;
691;SDS011;328;50.086;8.576;2023-04-02T05:59:28;4.70;;;3.50;;
691;SDS011;328;50.086;8.576;2023-04-02T06:01:57;4.43;;;3.97;;
691;SDS011;328;50.086;8.576;2023-04-02T06:04:29;5.57;;;4.27;;
691;SDS011;328;50.086;8.576;2023-04-02T06:07:02;5.90;;;3.97;;
691;SDS011;328;50.086;8.576;2023-04-02T06:09:36;5.87;;;4.33;;
691;SDS011;328;50.086;8.576;2023-04-02T06:12:12;6.80;;;4.83;;
691;SDS011;328;50.086;8.576;2023-04-02T06:14:43;7.13;;;4.70;;
691;SDS011;328;50.086;8.576;2023-04-02T06:17:12;5.90;;;5.30;;
691;SDS011;328;50.086;8.576;2023-04-02T06:19:41;6.03;;;5.43;;
691;SDS011;328;50.086;8.576;2023-04-02T06:22:14;8.20;;;4.70;;
691;SDS011;328;50.086;8.576;2023-04-02T06:24:45;5.23;;;4.73;;
691;SDS011;328;50.086;8.576;2023-04-02T06:27:16;5.43;;;4.57;;
691;SDS011;328;50.086;8.576;2023-04-02T06:29:47;5.53;;;4.80;;
691;SDS011;328;50.086;8.576;2023-04-02T06:32:18;8.37;;;5.40;;
691;SDS011;328;50.086;8.576;2023-04-02T06:34:47;5.97;;;4.97;;
691;SDS011;328;50.086;8.576;2023-04-02T06:37:18;2.20;;;1.33;;
691;SDS011;328;50.086;8.576;2023-04-02T06:39:48;2.00;;;1.10;;
691;SDS011;328;50.086;8.576;2023-04-02T06:42:16;1.10;;;0.80;;
691;SDS011;328;50.086;8.576;2023-04-02T06:44:45;1.20;;;0.70;;
691;SDS011;328;50.086;8.576;2023-04-02T06:47:15;1.00;;;0.80;;
691;SDS011;328;50.086;8.576;2023-04-02T06:49:49;1.60;;;1.50;;
691;SDS011;328;50.086;8.576;2023-04-02T06:52:22;1.07;;;0.80;;
691;SDS011;328;50.086;8.576;2023-04-02T06:54:52;0.90;;;0.60;;
691;SDS011;328;50.086;8.576;2023-04-02T06:57:19;1.27;;;0.70;;
691;SDS011;328;50.086;8.576;2023-04-02T06:59:47;2.03;;;1.10;;
691;SDS011;328;50.086;8.576;2023-04-02T07:02:23;1.10;;;0.80;;
691;SDS011;328;50.086;8.576;2023-04-02T07:04:55;1.00;;;0.90;;
691;SDS011;328;50.086;8.576;2023-04-02T07:07:29;1.77;;;1.03;;
691;SDS011;328;50.086;8.576;2023-04-02T07:09:57;2.07;;;1.20;;
691;SDS011;328;50.086;8.576;2023-04-02T07:12:25;1.63;;;1.20;;
691;SDS011;328;50.086;8.576;2023-04-02T07:14:52;1.70;;;1.47;;
691;SDS011;328;50.086;8.576;2023-04-02T07:17:20;1.40;;;0.87;;
691;SDS011;328;50.086;8.576;2023-04-02T07:19:48;3.43;;;2.30;;
691;SDS011;328;50.086;8.576;2023-04-02T07:22:16;4.30;;;2.70;;
691;SDS011;328;50.086;8.576;2023-04-02T07:24:44;8.17;;;4.57;;
691;SDS011;328;50.086;8.576;2023-04-02T07:27:13;6.80;;;5.80;;
691;SDS011;328;50.086;8.576;2023-04-02T07:29:41;2.60;;;2.20;;
691;SDS011;328;50.086;8.576;2023-04-02T07:32:08;1.70;;;1.00;;
691;SDS011;328;50.086;8.576;2023-04-02T07:34:36;1.67;;;0.70;;
691;SDS011;328;50.086;8.576;2023-04-02T07:37:04;1.63;;;1.30;;
691;SDS011;328;50.086;8.576;2023-04-02T07:39:32;3.23;;;1.47;;
691;SDS011;328;50.086;8.576;2023-04-02T07:42:04;1.63;;;1.33;;
691;SDS011;328;50.086;8.576;2023-04-02T07:44:33;3.80;;;1.73;;
691;SDS011;328;50.086;8.576;2023-04-02T07:47:00;17.13;;;4.80;;
691;SDS011;328;50.086;8.576;2023-04-02T07:49:28;1.60;;;1.00;;
691;SDS011;328;50.086;8.576;2023-04-02T07:51:56;9.40;;;4.80;;
691;SDS011;328;50.086;8.576;2023-04-02T07:54:23;1.53;;;1.40;;
691;SDS011;328;50.086;8.576;2023-04-02T07:56:52;3.10;;;1.97;;
691;SDS011;328;50.086;8.576;2023-04-02T07:59:21;1.73;;;1.10;;
691;SDS011;328;50.086;8.576;2023-04-02T08:01:49;1.30;;;1.00;;
691;SDS011;328;50.086;8.576;2023-04-02T08:04:18;4.00;;;1.53;;
691;SDS011;328;50.086;8.576;2023-04-02T08:06:47;13.33;;;6.10;;
691;SDS011;328;50.086;8.576;2023-04-02T08:09:16;19.30;;;9.73;;
691;SDS011;328;50.086;8.576;2023-04-02T08:11:44;2.53;;;1.30;;
691;SDS011;328;50.086;8.576;2023-04-02T08:14:12;2.17;;;1.00;;
691;SDS011;328;50.086;8.576;2023-04-02T08:16:45;1.53;;;1.40;;
691;SDS011;328;50.086;8.576;2023-04-02T08:19:14;3.20;;;2.20;;
691;SDS011;328;50.086;8.576;2023-04-02T08:21:41;4.27;;;2.27;;
691;SDS011;328;50.086;8.576;2023-04-02T08:24:09;3.03;;;2.10;;
691;SDS011;328;50.086;8.576;2023-04-02T08:26:36;2.17;;;1.97;;
691;SDS011;328;50.086;8.576;2023-04-02T08:29:04;3.60;;;2.60;;
691;SDS011;328;50.086;8.576;2023-04-02T08:31:31;1.73;;;1.47;;
691;SDS011;328;50.086;8.576;2023-04-02T08:34:00;4.13;;;2.73;;
691;SDS011;328;50.086;8.576;2023-04-02T08:36:28;4.17;;;2.27;;
691;SDS011;328;50.086;8.576;2023-04-02T08:38:57;1.07;;;0.70;;
691;SDS011;328;50.086;8.576;2023-04-02T08:41:25;1.83;;;1.20;;
691;SDS011;328;50.086;8.576;2023-04-02T08:43:59;2.77;;;1.43;;
691;SDS011;328;50.086;8.576;2023-04-02T08:46:36;1.43;;;1.00;;
691;SDS011;328;50.086;8.576;2023-04-02T08:49:10;4.60;;;2.60;;
691;SDS011;328;50.086;8.576;2023-04-02T08:51:39;7.90;;;4.33;;
691;SDS011;328;50.086;8.576;2023-04-02T08:54:08;5.97;;;2.50;;
691;SDS011;328;50.086;8.576;2023-04-02T08:56:43;0.90;;;0.80;;
691;SDS011;328;50.086;8.576;2023-04-02T08:59:17;1.43;;;1.33;;
691;SDS011;328;50.086;8.576;2023-04-02T09:01:50;2.70;;;2.40;;
691;SDS011;328;50.086;8.576;2023-04-02T09:04:24;2.63;;;1.60;;
691;SDS011;328;50.086;8.576;2023-04-02T09:06:52;4.00;;;1.40;;
691;SDS011;328;50.086;8.576;2023-04-02T09:09:21;2.20;;;1.80;;
691;SDS011;328;50.086;8.576;2023-04-02T09:11:51;3.57;;;2.17;;
691;SDS011;328;50.086;8.576;2023-04-02T09:14:22;3.10;;;2.57;;
691;SDS011;328;50.086;8.576;2023-04-02T09:16:51;1.50;;;1.10;;
691;SDS011;328;50.086;8.576;2023-04-02T09:19:21;5.60;;;3.63;;
691;SDS011;328;50.086;8.576;2023-04-02T09:22:04;4.63;;;3.20;;
691;SDS011;328;50.086;8.576;2023-04-02T09:24:34;2.43;;;1.80;;
691;SDS011;328;50.086;8.576;2023-04-02T09:27:02;3.07;;;2.13;;
691;SDS011;328;50.086;8.576;2023-04-02T09:29:42;2.10;;;1.30;;
691;SDS011;328;50.086;8.576;2023-04-02T09:32:22;1.60;;;1.47;;
691;SDS011;328;50.086;8.576;2023-04-02T09:35:07;3.03;;;2.00;;
691;SDS011;328;50.086;8.576;2023-04-02T09:40:42;2.00;;;1.30;;
691;SDS011;328;50.086;8.576;2023-04-02T09:43:13;3.17;;;1.60;;
691;SDS011;328;50.086;8.576;2023-04-02T09:45:43;2.03;;;1.33;;
691;SDS011;328;50.086;8.576;2023-04-02T09:48:14;2.60;;;1.77;;
691;SDS011;328;50.086;8.576;2023-04-02T09:50:47;3.37;;;1.90;;
691;SDS011;328;50.086;8.576;2023-04-02T09:53:23;1.90;;;1.50;;
691;SDS011;328;50.086;8.576;2023-04-02T09:56:06;2.20;;;1.80;;
691;SDS011;328;50.086;8.576;2023-04-02T09:58:35;1.70;;;1.60;;
691;SDS011;328;50.086;8.576;2023-04-02T10:01:03;2.67;;;2.10;;
691;SDS011;328;50.086;8.576;2023-04-02T10:03:33;2.40;;;1.70;;
691;SDS011;328;50.086;8.576;2023-04-02T10:06:08;2.40;;;1.80;;
691;SDS011;328;50.086;8.576;2023-04-02T10:08:38;1.97;;;1.83;;
691;SDS011;328;50.086;8.576;2023-04-02T10:11:07;2.27;;;1.97;;
691;SDS011;328;50.086;8.576;2023-04-02T10:13:39;3.33;;;2.00;;
691;SDS011;328;50.086;8.576;2023-04-02T10:16:10;2.03;;;1.60;;
691;SDS011;328;50.086;8.576;2023-04-02T10:18:40;2.07;;;1.70;;
691;SDS011;328;50.086;8.576;2023-04-02T10:21:12;2.73;;;1.53;;
691;SDS011;328;50.086;8.576;2023-04-02T10:23:43;2.03;;;1.83;;
691;SDS011;328;50.086;8.576;2023-04-02T10:26:16;1.40;;;0.90;;
691;SDS011;328;50.086;8.576;2023-04-02T10:28:53;2.00;;;1.27;;
691;SDS011;328;50.086;8.576;2023-04-02T10:31:33;1.40;;;1.30;;
691;SDS011;328;50.086;8.576;2023-04-02T10:34:08;1.60;;;1.23;;
691;SDS011;328;50.086;8.576;2023-04-02T10:36:42;1.20;;;1.00;;
691;SDS011;328;50.086;8.576;2023-04-02T10:39:17;1.47;;;1.20;;
691;SDS011;328;50.086;8.576;2023-04-02T10:41:47;2.27;;;1.20;;
691;SDS011;328;50.086;8.576;2023-04-02T10:44:24;1.63;;;1.47;;
691;SDS011;328;50.086;8.576;2023-04-02T10:47:07;1.80;;;1.17;;
691;SDS011;328;50.086;8.576;2023-04-02T10:49:41;1.80;;;1.50;;
691;SDS011;328;50.086;8.576;2023-04-02T10:52:11;2.13;;;1.20;;
691;SDS011;328;50.086;8.576;2023-04-02T10:54:46;3.27;;;2.87;;
691;SDS011;328;50.086;8.576;2023-04-02T10:57:19;2.23;;;2.00;;
691;SDS011;328;50.086;8.576;2023-04-02T10:59:52;1.40;;;1.17;;
691;SDS011;328;50.086;8.576;2023-04-02T11:02:30;1.67;;;1.30;;
691;SDS011;328;50.086;8.576;2023-04-02T11:05:03;1.37;;;0.90;;
691;SDS011;328;50.086;8.576;2023-04-02T11:07:42;2.70;;;2.10;;
691;SDS011;328;50.086;8.576;2023-04-02T11:10:17;1.73;;;1.33;;
691;SDS011;328;50.086;8.576;2023-04-02T11:12:48;2.20;;;2.00;;
691;SDS011;328;50.086;8.576;2023-04-02T11:15:18;1.67;;;1.50;;
691;SDS011;328;50.086;8.576;2023-04-02T11:17:46;1.63;;;0.93;;
691;SDS011;328;50.086;8.576;2023-04-02T11:23:24;5.07;;;3.30;;
691;SDS011;328;50.086;8.576;2023-04-02T11:32:12;2.60;;;1.80;;
691;SDS011;328;50.086;8.576;2023-04-02T11:34:56;2.87;;;1.93;;
691;SDS011;328;50.086;8.576;2023-04-02T11:37:45;3.63;;;2.10;;
691;SDS011;328;50.086;8.576;2023-04-02T11:49:33;2.53;;;1.90;;
691;SDS011;328;50.086;8.576;2023-04-02T11:52:18;1.60;;;1.47;;
691;SDS011;328;50.086;8.576;2023-04-02T11:54:53;1.57;;;1.47;;
691;SDS011;328;50.086;8.576;2023-04-02T11:57:25;1.97;;;1.60;;
691;SDS011;328;50.086;8.576;2023-04-02T12:00:04;3.80;;;3.00;;
691;SDS011;328;50.086;8.576;2023-04-02T12:02:47;2.60;;;2.10;;
691;SDS011;328;50.086;8.576;2023-04-02T12:05:24;2.13;;;1.80;;
691;SDS011;328;50.086;8.576;2023-04-02T12:07:56;4.40;;;3.37;;
691;SDS011;328;50.086;8.576;2023-04-02T12:10:33;1.70;;;1.60;;
691;SDS011;328;50.086;8.576;2023-04-02T12:13:17;2.40;;;2.20;;
691;SDS011;328;50.086;8.576;2023-04-02T12:15:46;4.87;;;4.00;;
691;SDS011;328;50.086;8.576;2023-04-02T12:18:16;2.27;;;2.07;;
691;SDS011;328;50.086;8.576;2023-04-02T12:20:46;2.30;;;1.97;;
691;SDS011;328;50.086;8.576;2023-04-02T12:23:19;1.90;;;1.60;;
691;SDS011;328;50.086;8.576;2023-04-02T12:25:53;3.93;;;2.27;;
691;SDS011;328;50.086;8.576;2023-04-02T12:28:23;3.70;;;2.80;;
691;SDS011;328;50.086;8.576;2023-04-02T12:31:00;3.20;;;2.00;;
691;SDS011;328;50.086;8.576;2023-04-02T12:33:31;2.23;;;2.03;;
691;SDS011;328;50.086;8.576;2023-04-02T12:36:03;3.53;;;2.10;;
691;SDS011;328;50.086;8.576;2023-04-02T12:38:41;2.10;;;1.90;;
691;SDS011;328;50.086;8.576;2023-04-02T12:41:17;3.93;;;2.73;;
691;SDS011;328;50.086;8.576;2023-04-02T12:43:55;7.90;;;6.90;;
691;SDS011;328;50.086;8.576;2023-04-02T12:46:23;3.40;;;2.53;;
691;SDS011;328;50.086;8.576;2023-04-02T12:48:53;3.53;;;2.67;;
691;SDS011;328;50.086;8.576;2023-04-02T12:51:21;3.63;;;2.40;;
691;SDS011;328;50.086;8.576;2023-04-02T12:53:51;3.10;;;2.43;;
691;SDS011;328;50.086;8.576;2023-04-02T12:56:19;2.23;;;2.03;;
691;SDS011;328;50.086;8.576;2023-04-02T12:58:51;2.63;;;2.30;;
691;SDS011;328;50.086;8.576;2023-04-02T13:01:20;3.27;;;2.37;;
691;SDS011;328;50.086;8.576;2023-04-02T13:04:01;2.97;;;2.30;;
691;SDS011;328;50.086;8.576;2023-04-02T13:06:30;7.90;;;6.10;;
691;SDS011;328;50.086;8.576;2023-04-02T13:08:58;4.33;;;3.30;;
691;SDS011;328;50.086;8.576;2023-04-02T13:11:32;3.10;;;2.60;;
691;SDS011;328;50.086;8.576;2023-04-02T13:14:02;3.83;;;2.30;;
691;SDS011;328;50.086;8.576;2023-04-02T13:16:34;3.77;;;1.80;;
691;SDS011;328;50.086;8.576;2023-04-02T13:19:11;3.47;;;2.53;;
691;SDS011;328;50.086;8.576;2023-04-02T13:21:47;2.30;;;2.10;;
691;SDS011;328;50.086;8.576;2023-04-02T13:24:17;2.20;;;1.67;;
691;SDS011;328;50.086;8.576;2023-04-02T13:26:45;5.50;;;2.40;;
691;SDS011;328;50.086;8.576;2023-04-02T13:29:22;2.63;;;2.30;;
691;SDS011;328;50.086;8.576;2023-04-02T13:31:51;3.97;;;2.03;;
691;SDS011;328;50.086;8.576;2023-04-02T13:34:22;2.10;;;1.73;;
691;SDS011;328;50.086;8.576;2023-04-02T13:36:49;3.67;;;2.40;;
691;SDS011;328;50.086;8.576;2023-04-02T13:39:17;2.83;;;2.60;;
691;SDS011;328;50.086;8.576;2023-04-02T13:41:46;2.37;;;1.77;;
691;SDS011;328;50.086;8.576;2023-04-02T13:44:19;2.10;;;1.80;;
691;SDS011;328;50.086;8.576;2023-04-02T13:46:48;7.00;;;2.60;;
691;SDS011;328;50.086;8.576;2023-04-02T13:49:16;3.40;;;2.70;;
691;SDS011;328;50.086;8.576;2023-04-02T13:51:45;3.93;;;3.00;;
691;SDS011;328;50.086;8.576;2023-04-02T13:54:17;3.67;;;2.70;;
691;SDS011;328;50.086;8.576;2023-04-02T13:56:47;4.57;;;3.20;;
691;SDS011;328;50.086;8.576;2023-04-02T13:59:15;4.20;;;2.67;;
691;SDS011;328;50.086;8.576;2023-04-02T14:01:43;3.60;;;3.20;;
691;SDS011;328;50.086;8.576;2023-04-02T14:04:12;4.07;;;3.10;;
691;SDS011;328;50.086;8.576;2023-04-02T14:06:58;4.63;;;3.20;;
691;SDS011;328;50.086;8.576;2023-04-02T14:09:34;5.30;;;3.27;;
691;SDS011;328;50.086;8.576;2023-04-02T14:12:06;4.07;;;3.50;;
691;SDS011;328;50.086;8.576;2023-04-02T14:14:44;4.33;;;3.30;;
691;SDS011;328;50.086;8.576;2023-04-02T14:17:23;3.50;;;3.00;;
691;SDS011;328;50.086;8.576;2023-04-02T14:20:04;6.30;;;4.03;;
691;SDS011;328;50.086;8.576;2023-04-02T14:22:43;4.00;;;3.43;;
691;SDS011;328;50.086;8.576;2023-04-02T14:25:16;5.90;;;4.00;;
691;SDS011;328;50.086;8.576;2023-04-02T14:27:52;3.90;;;3.50;;
691;SDS011;328;50.086;8.576;2023-04-02T14:30:25;3.90;;;3.50;;
691;SDS011;328;50.086;8.576;2023-04-02T14:32:54;6.60;;;3.90;;
691;SDS011;328;50.086;8.576;2023-04-02T14:35:26;4.60;;;3.70;;
691;SDS011;328;50.086;8.576;2023-04-02T14:37:59;4.40;;;3.30;;
691;SDS011;328;50.086;8.576;2023-04-02T14:40:32;3.67;;;3.20;;
691;SDS011;328;50.086;8.576;2023-04-02T14:43:03;5.33;;;3.40;;
691;SDS011;328;50.086;8.576;2023-04-02T14:45:38;5.87;;;4.97;;
691;SDS011;328;50.086;8.576;2023-04-02T14:48:17;5.50;;;4.27;;
691;SDS011;328;50.086;8.576;2023-04-02T14:50:51;5.43;;;4.57;;
691;SDS011;328;50.086;8.576;2023-04-02T14:53:24;4.33;;;3.57;;
691;SDS011;328;50.086;8.576;2023-04-02T14:55:53;4.67;;;3.33;;
691;SDS011;328;50.086;8.576;2023-04-02T14:58:23;4.00;;;3.23;;
691;SDS011;328;50.086;8.576;2023-04-02T15:00:54;4.97;;;3.57;;
691;SDS011;328;50.086;8.576;2023-04-02T15:03:24;3.73;;;3.17;;
691;SDS011;328;50.086;8.576;2023-04-02T15:05:56;4.10;;;3.43;;
691;SDS011;328;50.086;8.576;2023-04-02T15:08:27;4.20;;;3.80;;
691;SDS011;328;50.086;8.576;2023-04-02T15:10:58;4.17;;;2.50;;
691;SDS011;328;50.086;8.576;2023-04-02T15:13:33;3.50;;;2.60;;
691;SDS011;328;50.086;8.576;2023-04-02T15:16:04;3.53;;;2.83;;
691;SDS011;328;50.086;8.576;2023-04-02T15:18:36;3.90;;;3.20;;
691;SDS011;328;50.086;8.576;2023-04-02T15:21:07;7.57;;;3.40;;
691;SDS011;328;50.086;8.576;2023-04-02T15:23:47;5.43;;;3.20;;
691;SDS011;328;50.086;8.576;2023-04-02T15:26:21;4.70;;;2.30;;
691;SDS011;328;50.086;8.576;2023-04-02T15:28:54;5.80;;;4.00;;
691;SDS011;328;50.086;8.576;2023-04-02T15:31:26;3.17;;;2.70;;
691;SDS011;328;50.086;8.576;2023-04-02T15:33:58;4.23;;;2.90;;
691;SDS011;328;50.086;8.576;2023-04-02T15:39:50;4.63;;;2.40;;
691;SDS011;328;50.086;8.576;2023-04-02T15:42:25;4.80;;;2.57;;
691;SDS011;328;50.086;8.576;2023-04-02T15:47:54;2.30;;;2.07;;
691;SDS011;328;50.086;8.576;2023-04-02T15:50:42;4.13;;;2.80;;
691;SDS011;328;50.086;8.576;2023-04-02T15:53:17;3.80;;;3.17;;
691;SDS011;328;50.086;8.576;2023-04-02T15:55:56;3.07;;;2.60;;
691;SDS011;328;50.086;8.576;2023-04-02T15:58:31;4.00;;;3.27;;
691;SDS011;328;50.086;8.576;2023-04-02T16:01:10;4.30;;;3.07;;
691;SDS011;328;50.086;8.576;2023-04-02T16:06:33;3.40;;;2.33;;
691;SDS011;328;50.086;8.576;2023-04-02T16:09:14;7.13;;;2.87;;
691;SDS011;328;50.086;8.576;2023-04-02T16:11:45;3.70;;;2.57;;
691;SDS011;328;50.086;8.576;2023-04-02T16:14:20;3.80;;;2.90;;
691;SDS011;328;50.086;8.576;2023-04-02T16:16:51;5.87;;;3.37;;
691;SDS011;328;50.086;8.576;2023-04-02T16:19:21;3.83;;;3.10;;
691;SDS011;328;50.086;8.576;2023-04-02T16:21:55;4.00;;;2.50;;
691;SDS011;328;50.086;8.576;2023-04-02T16:24:27;5.97;;;4.90;;
691;SDS011;328;50.086;8.576;2023-04-02T16:26:57;5.07;;;3.73;;
691;SDS011;328;50.086;8.576;2023-04-02T16:29:36;5.43;;;3.10;;
691;SDS011;328;50.086;8.576;2023-04-02T16:32:23;4.90;;;3.13;;
691;SDS011;328;50.086;8.576;2023-04-02T16:35:02;4.13;;;3.43;;
691;SDS011;328;50.086;8.576;2023-04-02T16:37:59;3.30;;;3.00;;
691;SDS011;328;50.086;8.576;2023-04-02T16:40:35;4.07;;;3.10;;
691;SDS011;328;50.086;8.576;2023-04-02T16:43:19;3.90;;;3.50;;
691;SDS011;328;50.086;8.576;2023-04-02T16:45:52;5.27;;;3.90;;
691;SDS011;328;50.086;8.576;2023-04-02T16:48:24;3.97;;;3.40;;
691;SDS011;328;50.086;8.576;2023-04-02T16:50:58;5.23;;;3.50;;
691;SDS011;328;50.086;8.576;2023-04-02T16:53:34;5.60;;;4.13;;
691;SDS011;328;50.086;8.576;2023-04-02T16:56:26;6.30;;;5.27;;